sensor_id;sensor_type;location;lat;lon;timestamp;pressure;altitude;pressure_sealevel;temperature;humidity
23427;BME280;41148;45.420;10.952;2023-10-13T00:00:42;101242.22;;;19.73;82.45
23427;BME280;41148;45.420;10.952;2023-10-13T00:03:10;101240.06;;;19.80;82.48
23427;BME280;41148;45.420;10.952;2023-10-13T00:05:43;101253.38;;;19.83;82.38
23427;BME280;41148;45.420;10.952;2023-10-13T00:08:11;101247.09;;;19.82;82.01
23427;BME280;41148;45.420;10.952;2023-10-13T00:10:41;101261.41;;;19.84;81.72
23427;BME280;41148;45.420;10.952;2023-10-13T00:13:09;101252.16;;;19.72;82.61
23427;BME280;41148;45.420;10.952;2023-10-13T00:15:47;101256.31;;;19.78;82.66
23427;BME280;41148;45.420;10.952;2023-10-13T00:18:29;101257.81;;;19.84;82.46
23427;BME280;41148;45.420;10.952;2023-10-13T00:21:09;101251.63;;;19.82;82.29
23427;BME280;41148;45.420;10.952;2023-10-13T00:23:42;101249.56;;;19.71;83.12
23427;BME280;41148;45.420;10.952;2023-10-13T00:26:23;101255.94;;;19.70;83.00
23427;BME280;41148;45.420;10.952;2023-10-13T00:29:11;101260.28;;;19.72;83.20
23427;BME280;41148;45.420;10.952;2023-10-13T00:31:44;101263.84;;;19.73;82.72
23427;BME280;41148;45.420;10.952;2023-10-13T00:34:16;101256.28;;;19.80;82.43
23427;BME280;41148;45.420;10.952;2023-10-13T00:36:52;101246.91;;;19.85;82.02
23427;BME280;41148;45.420;10.952;2023-10-13T00:39:55;101251.78;;;19.94;81.44
23427;BME280;41148;45.420;10.952;2023-10-13T00:42:24;101254.69;;;19.91;81.30
23427;BME280;41148;45.420;10.952;2023-10-13T00:45:11;101244.75;;;19.92;81.51
23427;BME280;41148;45.420;10.952;2023-10-13T00:47:45;101247.00;;;19.99;81.36
23427;BME280;41148;45.420;10.952;2023-10-13T00:50:24;101242.63;;;19.97;81.89
23427;BME280;41148;45.420;10.952;2023-10-13T00:52:51;101247.09;;;19.98;81.70
23427;BME280;41148;45.420;10.952;2023-10-13T00:55:19;101247.34;;;19.93;81.86
23427;BME280;41148;45.420;10.952;2023-10-13T00:57:53;101240.78;;;19.97;81.57
23427;BME280;41148;45.420;10.952;2023-10-13T01:00:24;101248.03;;;19.97;81.89
23427;BME280;41148;45.420;10.952;2023-10-13T01:02:55;101246.03;;;19.85;82.38
23427;BME280;41148;45.420;10.952;2023-10-13T01:05:25;101244.31;;;19.84;82.65
23427;BME280;41148;45.420;10.952;2023-10-13T01:07:53;101242.66;;;19.81;82.68
23427;BME280;41148;45.420;10.952;2023-10-13T01:10:22;101248.41;;;19.91;82.29
23427;BME280;41148;45.420;10.952;2023-10-13T01:13:00;101245.09;;;19.86;82.82
23427;BME280;41148;45.420;10.952;2023-10-13T01:15:30;101241.69;;;19.82;83.23
23427;BME280;41148;45.420;10.952;2023-10-13T01:18:07;101236.81;;;19.73;83.43
23427;BME280;41148;45.420;10.952;2023-10-13T01:20:41;101228.94;;;19.68;83.31
23427;BME280;41148;45.420;10.952;2023-10-13T01:23:19;101242.13;;;19.75;83.15
23427;BME280;41148;45.420;10.952;2023-10-13T01:25:51;101229.38;;;19.77;83.13
23427;BME280;41148;45.420;10.952;2023-10-13T01:28:21;101234.53;;;19.81;82.87
23427;BME280;41148;45.420;10.952;2023-10-13T01:30:49;101230.34;;;19.76;83.32
23427;BME280;41148;45.420;10.952;2023-10-13T01:33:20;101227.94;;;19.71;83.48
23427;BME280;41148;45.420;10.952;2023-10-13T01:35:57;101233.44;;;19.69;83.65
23427;BME280;41148;45.420;10.952;2023-10-13T01:38:26;101234.53;;;19.65;84.12
23427;BME280;41148;45.420;10.952;2023-10-13T01:40:54;101229.84;;;19.69;84.15
23427;BME280;41148;45.420;10.952;2023-10-13T01:43:24;101228.09;;;19.68;83.82
23427;BME280;41148;45.420;10.952;2023-10-13T01:45:52;101226.19;;;19.70;84.05
23427;BME280;41148;45.420;10.952;2023-10-13T01:48:21;101223.53;;;19.68;84.14
23427;BME280;41148;45.420;10.952;2023-10-13T01:50:49;101215.72;;;19.64;84.43
23427;BME280;41148;45.420;10.952;2023-10-13T01:53:23;101223.97;;;19.77;83.52
23427;BME280;41148;45.420;10.952;2023-10-13T01:55:51;101219.38;;;19.79;83.39
23427;BME280;41148;45.420;10.952;2023-10-13T01:58:18;101215.00;;;19.76;83.24
23427;BME280;41148;45.420;10.952;2023-10-13T02:00:50;101224.25;;;19.72;83.78
23427;BME280;41148;45.420;10.952;2023-10-13T02:03:18;101215.53;;;19.83;83.11
23427;BME280;41148;45.420;10.952;2023-10-13T02:05:49;101217.91;;;19.73;83.59
23427;BME280;41148;45.420;10.952;2023-10-13T02:08:21;101222.44;;;19.72;83.88
23427;BME280;41148;45.420;10.952;2023-10-13T02:10:54;101209.78;;;19.73;83.38
23427;BME280;41148;45.420;10.952;2023-10-13T02:13:23;101211.44;;;19.76;83.55
23427;BME280;41148;45.420;10.952;2023-10-13T02:15:56;101212.28;;;19.76;83.74
23427;BME280;41148;45.420;10.952;2023-10-13T02:18:24;101208.47;;;19.80;83.79
23427;BME280;41148;45.420;10.952;2023-10-13T02:20:56;101204.03;;;19.79;83.73
23427;BME280;41148;45.420;10.952;2023-10-13T02:23:24;101211.34;;;19.77;83.81
23427;BME280;41148;45.420;10.952;2023-10-13T02:25:59;101207.75;;;19.77;83.71
23427;BME280;41148;45.420;10.952;2023-10-13T02:28:38;101208.28;;;19.67;84.26
23427;BME280;41148;45.420;10.952;2023-10-13T02:31:06;101200.19;;;19.67;84.30
23427;BME280;41148;45.420;10.952;2023-10-13T02:33:34;101187.63;;;19.66;84.35
23427;BME280;41148;45.420;10.952;2023-10-13T02:36:03;101191.44;;;19.78;83.85
23427;BME280;41148;45.420;10.952;2023-10-13T02:38:33;101200.28;;;19.82;83.60
23427;BME280;41148;45.420;10.952;2023-10-13T02:41:09;101185.09;;;19.79;83.56
23427;BME280;41148;45.420;10.952;2023-10-13T02:43:37;101189.38;;;19.67;84.35
23427;BME280;41148;45.420;10.952;2023-10-13T02:46:06;101184.16;;;19.64;84.38
23427;BME280;41148;45.420;10.952;2023-10-13T02:48:34;101182.59;;;19.60;84.73
23427;BME280;41148;45.420;10.952;2023-10-13T02:51:08;101182.66;;;19.59;84.62
23427;BME280;41148;45.420;10.952;2023-10-13T02:53:46;101179.25;;;19.55;85.23
23427;BME280;41148;45.420;10.952;2023-10-13T02:56:18;101179.25;;;19.55;85.40
23427;BME280;41148;45.420;10.952;2023-10-13T02:58:52;101183.09;;;19.51;85.82
23427;BME280;41148;45.420;10.952;2023-10-13T03:01:21;101183.25;;;19.48;85.69
23427;BME280;41148;45.420;10.952;2023-10-13T03:03:50;101181.88;;;19.57;85.60
23427;BME280;41148;45.420;10.952;2023-10-13T03:06:23;101178.81;;;19.47;86.18
23427;BME280;41148;45.420;10.952;2023-10-13T03:08:52;101175.66;;;19.39;86.64
23427;BME280;41148;45.420;10.952;2023-10-13T03:11:20;101184.91;;;19.35;87.04
23427;BME280;41148;45.420;10.952;2023-10-13T03:13:50;101172.81;;;19.42;86.57
23427;BME280;41148;45.420;10.952;2023-10-13T03:16:20;101173.94;;;19.22;87.45
23427;BME280;41148;45.420;10.952;2023-10-13T03:18:48;101169.66;;;19.18;88.02
23427;BME280;41148;45.420;10.952;2023-10-13T03:21:23;101178.44;;;19.06;88.58
23427;BME280;41148;45.420;10.952;2023-10-13T03:23:59;101181.94;;;19.08;88.93
23427;BME280;41148;45.420;10.952;2023-10-13T03:26:35;101187.06;;;18.97;89.90
23427;BME280;41148;45.420;10.952;2023-10-13T03:29:04;101181.75;;;18.95;90.14
23427;BME280;41148;45.420;10.952;2023-10-13T03:31:40;101187.06;;;18.97;90.13
23427;BME280;41148;45.420;10.952;2023-10-13T03:34:08;101184.03;;;19.03;89.66
23427;BME280;41148;45.420;10.952;2023-10-13T03:36:39;101175.19;;;18.99;90.04
23427;BME280;41148;45.420;10.952;2023-10-13T03:39:32;101179.94;;;19.11;89.56
23427;BME280;41148;45.420;10.952;2023-10-13T03:42:00;101180.09;;;19.08;89.64
23427;BME280;41148;45.420;10.952;2023-10-13T03:44:28;101187.91;;;18.97;90.28
23427;BME280;41148;45.420;10.952;2023-10-13T03:46:58;101187.06;;;18.97;90.27
23427;BME280;41148;45.420;10.952;2023-10-13T03:49:36;101193.16;;;19.00;90.16
23427;BME280;41148;45.420;10.952;2023-10-13T03:52:05;101195.69;;;19.03;90.12
23427;BME280;41148;45.420;10.952;2023-10-13T03:54:33;101192.91;;;19.05;89.98
23427;BME280;41148;45.420;10.952;2023-10-13T03:57:02;101189.56;;;19.00;90.57
23427;BME280;41148;45.420;10.952;2023-10-13T03:59:38;101190.63;;;18.97;90.33
23427;BME280;41148;45.420;10.952;2023-10-13T04:02:07;101186.53;;;19.06;90.20
23427;BME280;41148;45.420;10.952;2023-10-13T04:04:41;101184.13;;;19.01;90.33
23427;BME280;41148;45.420;10.952;2023-10-13T04:07:09;101180.97;;;19.09;89.63
23427;BME280;41148;45.420;10.952;2023-10-13T04:09:37;101177.66;;;19.04;90.10
23427;BME280;41148;45.420;10.952;2023-10-13T04:12:14;101190.72;;;18.96;90.82
23427;BME280;41148;45.420;10.952;2023-10-13T04:15:00;101185.31;;;18.96;90.97
23427;BME280;41148;45.420;10.952;2023-10-13T04:17:34;101197.06;;;18.95;90.98
23427;BME280;41148;45.420;10.952;2023-10-13T04:20:08;101189.75;;;18.97;91.14
23427;BME280;41148;45.420;10.952;2023-10-13T04:22:41;101192.13;;;19.03;90.86
23427;BME280;41148;45.420;10.952;2023-10-13T04:25:21;101193.00;;;19.03;90.30
23427;BME280;41148;45.420;10.952;2023-10-13T04:28:10;101188.69;;;18.99;90.46
23427;BME280;41148;45.420;10.952;2023-10-13T04:30:51;101200.03;;;19.06;89.95
23427;BME280;41148;45.420;10.952;2023-10-13T04:33:27;101185.84;;;19.02;89.84
23427;BME280;41148;45.420;10.952;2023-10-13T04:36:14;101192.50;;;19.12;89.31
23427;BME280;41148;45.420;10.952;2023-10-13T04:38:56;101177.31;;;19.10;89.09
23427;BME280;41148;45.420;10.952;2023-10-13T04:41:32;101190.47;;;19.16;88.90
23427;BME280;41148;45.420;10.952;2023-10-13T04:44:25;101188.66;;;19.16;88.47
23427;BME280;41148;45.420;10.952;2023-10-13T04:47:08;101197.72;;;19.15;88.54
23427;BME280;41148;45.420;10.952;2023-10-13T04:49:39;101196.56;;;19.20;88.50
23427;BME280;41148;45.420;10.952;2023-10-13T04:52:10;101197.19;;;19.25;88.07
23427;BME280;41148;45.420;10.952;2023-10-13T04:54:40;101186.28;;;19.10;88.85
23427;BME280;41148;45.420;10.952;2023-10-13T04:57:37;101187.22;;;19.09;89.09
23427;BME280;41148;45.420;10.952;2023-10-13T05:00:13;101193.34;;;19.13;88.53
23427;BME280;41148;45.420;10.952;2023-10-13T05:02:46;101192.72;;;19.08;89.16
23427;BME280;41148;45.420;10.952;2023-10-13T05:05:43;101196.75;;;19.16;88.75
23427;BME280;41148;45.420;10.952;2023-10-13T05:08:32;101202.25;;;19.15;89.13
23427;BME280;41148;45.420;10.952;2023-10-13T05:11:18;101190.47;;;19.16;88.78
23427;BME280;41148;45.420;10.952;2023-10-13T05:14:04;101198.84;;;19.27;88.02
23427;BME280;41148;45.420;10.952;2023-10-13T05:16:50;101202.09;;;19.34;87.51
23427;BME280;41148;45.420;10.952;2023-10-13T05:19:37;101207.66;;;19.31;87.54
23427;BME280;41148;45.420;10.952;2023-10-13T05:22:23;101206.09;;;19.27;87.79
23427;BME280;41148;45.420;10.952;2023-10-13T05:25:10;101204.53;;;19.23;88.18
23427;BME280;41148;45.420;10.952;2023-10-13T05:28:07;101207.38;;;19.20;88.45
23427;BME280;41148;45.420;10.952;2023-10-13T05:31:02;101216.44;;;19.19;88.25
23427;BME280;41148;45.420;10.952;2023-10-13T05:33:48;101221.69;;;19.22;88.22
23427;BME280;41148;45.420;10.952;2023-10-13T05:36:35;101215.94;;;19.28;87.27
23427;BME280;41148;45.420;10.952;2023-10-13T05:39:21;101216.09;;;19.25;87.50
23427;BME280;41148;45.420;10.952;2023-10-13T05:42:31;101236.06;;;19.22;87.93
23427;BME280;41148;45.420;10.952;2023-10-13T05:45:17;101236.75;;;19.26;87.79
23427;BME280;41148;45.420;10.952;2023-10-13T05:47:44;101233.97;;;19.27;87.31
23427;BME280;41148;45.420;10.952;2023-10-13T05:50:18;101239.53;;;19.24;87.53
23427;BME280;41148;45.420;10.952;2023-10-13T05:52:49;101241.97;;;19.29;87.61
23427;BME280;41148;45.420;10.952;2023-10-13T05:55:28;101241.56;;;19.36;87.58
23427;BME280;41148;45.420;10.952;2023-10-13T05:58:15;101247.22;;;19.32;87.78
23427;BME280;41148;45.420;10.952;2023-10-13T06:01:01;101249.56;;;19.38;87.81
23427;BME280;41148;45.420;10.952;2023-10-13T06:03:48;101250.81;;;19.32;87.43
23427;BME280;41148;45.420;10.952;2023-10-13T06:06:34;101256.72;;;19.39;87.20
23427;BME280;41148;45.420;10.952;2023-10-13T06:09:23;101259.78;;;19.33;87.62
23427;BME280;41148;45.420;10.952;2023-10-13T06:12:09;101265.00;;;19.36;87.99
23427;BME280;41148;45.420;10.952;2023-10-13T06:14:55;101266.94;;;19.34;88.66
23427;BME280;41148;45.420;10.952;2023-10-13T06:17:42;101267.97;;;19.31;88.47
23427;BME280;41148;45.420;10.952;2023-10-13T06:20:28;101257.22;;;19.30;88.70
23427;BME280;41148;45.420;10.952;2023-10-13T06:23:14;101274.75;;;19.38;88.33
23427;BME280;41148;45.420;10.952;2023-10-13T06:26:01;101267.97;;;19.31;88.36
23427;BME280;41148;45.420;10.952;2023-10-13T06:28:47;101276.94;;;19.32;88.21
23427;BME280;41148;45.420;10.952;2023-10-13T06:31:16;101280.25;;;19.37;87.88
23427;BME280;41148;45.420;10.952;2023-10-13T06:33:53;101275.56;;;19.40;87.17
23427;BME280;41148;45.420;10.952;2023-10-13T06:36:23;101275.56;;;19.40;87.66
23427;BME280;41148;45.420;10.952;2023-10-13T06:38:51;101288.63;;;19.48;87.63
23427;BME280;41148;45.420;10.952;2023-10-13T06:41:48;101291.19;;;19.51;87.80
23427;BME280;41148;45.420;10.952;2023-10-13T06:44:17;101292.75;;;19.55;88.02
23427;BME280;41148;45.420;10.952;2023-10-13T06:46:45;101297.69;;;19.47;88.47
23427;BME280;41148;45.420;10.952;2023-10-13T06:49:13;101309.88;;;19.56;88.62
23427;BME280;41148;45.420;10.952;2023-10-13T06:51:41;101312.56;;;19.56;88.47
23427;BME280;41148;45.420;10.952;2023-10-13T06:54:09;101314.94;;;19.62;87.74
23427;BME280;41148;45.420;10.952;2023-10-13T06:56:47;101300.47;;;19.63;87.65
23427;BME280;41148;45.420;10.952;2023-10-13T06:59:19;101300.28;;;19.66;87.55
23427;BME280;41148;45.420;10.952;2023-10-13T07:01:47;101330.13;;;19.80;86.86
23427;BME280;41148;45.420;10.952;2023-10-13T07:04:16;101320.00;;;19.84;86.66
23427;BME280;41148;45.420;10.952;2023-10-13T07:06:44;101312.78;;;19.84;86.55
23427;BME280;41148;45.420;10.952;2023-10-13T07:09:18;101333.28;;;19.88;86.32
23427;BME280;41148;45.420;10.952;2023-10-13T07:12:07;101318.72;;;19.91;86.96
23427;BME280;41148;45.420;10.952;2023-10-13T07:14:49;101324.03;;;19.92;87.12
23427;BME280;41148;45.420;10.952;2023-10-13T07:17:19;101322.09;;;19.94;87.00
23427;BME280;41148;45.420;10.952;2023-10-13T07:20:01;101329.16;;;19.97;87.36
23427;BME280;41148;45.420;10.952;2023-10-13T07:22:42;101322.19;;;19.93;87.03
23427;BME280;41148;45.420;10.952;2023-10-13T07:25:25;101321.41;;;19.91;86.83
23427;BME280;41148;45.420;10.952;2023-10-13T07:27:53;101324.03;;;19.92;86.17
23427;BME280;41148;45.420;10.952;2023-10-13T07:30:25;101327.78;;;20.06;85.88
23427;BME280;41148;45.420;10.952;2023-10-13T07:32:58;101319.31;;;20.12;85.79
23427;BME280;41148;45.420;10.952;2023-10-13T07:35:27;101322.19;;;20.09;85.36
23427;BME280;41148;45.420;10.952;2023-10-13T07:37:58;101336.56;;;20.25;84.74
23427;BME280;41148;45.420;10.952;2023-10-13T07:40:28;101332.66;;;20.30;84.78
23427;BME280;41148;45.420;10.952;2023-10-13T07:42:56;101338.59;;;20.37;84.50
23427;BME280;41148;45.420;10.952;2023-10-13T07:45:39;101329.59;;;20.37;83.84
23427;BME280;41148;45.420;10.952;2023-10-13T07:48:09;101335.69;;;20.40;84.04
23427;BME280;41148;45.420;10.952;2023-10-13T07:50:47;101337.00;;;20.49;83.44
23427;BME280;41148;45.420;10.952;2023-10-13T07:53:16;101338.22;;;20.59;82.74
23427;BME280;41148;45.420;10.952;2023-10-13T07:55:47;101345.38;;;20.60;82.31
23427;BME280;41148;45.420;10.952;2023-10-13T07:58:16;101342.00;;;20.71;82.01
23427;BME280;41148;45.420;10.952;2023-10-13T08:00:43;101339.72;;;20.79;81.74
23427;BME280;41148;45.420;10.952;2023-10-13T08:03:14;101343.00;;;20.84;82.34
23427;BME280;41148;45.420;10.952;2023-10-13T08:05:52;101340.03;;;20.89;82.09
23427;BME280;41148;45.420;10.952;2023-10-13T08:08:26;101344.13;;;20.96;81.41
23427;BME280;41148;45.420;10.952;2023-10-13T08:10:57;101343.47;;;21.06;81.13
23427;BME280;41148;45.420;10.952;2023-10-13T08:13:30;101345.63;;;21.15;80.51
23427;BME280;41148;45.420;10.952;2023-10-13T08:16:00;101344.88;;;21.28;80.38
23427;BME280;41148;45.420;10.952;2023-10-13T08:18:33;101348.28;;;21.46;79.26
23427;BME280;41148;45.420;10.952;2023-10-13T08:21:03;101344.50;;;21.62;77.82
23427;BME280;41148;45.420;10.952;2023-10-13T08:23:32;101341.50;;;21.67;77.08
23427;BME280;41148;45.420;10.952;2023-10-13T08:26:18;101339.31;;;22.42;73.49
23427;BME280;41148;45.420;10.952;2023-10-13T08:29:04;101344.72;;;23.08;69.77
23427;BME280;41148;45.420;10.952;2023-10-13T08:31:55;101339.81;;;23.13;69.26
23427;BME280;41148;45.420;10.952;2023-10-13T08:34:33;101341.28;;;22.79;70.57
23427;BME280;41148;45.420;10.952;2023-10-13T08:37:06;101342.06;;;22.54;71.23
23427;BME280;41148;45.420;10.952;2023-10-13T08:40:04;101345.91;;;22.38;71.90
23427;BME280;41148;45.420;10.952;2023-10-13T08:42:36;101346.50;;;22.28;72.70
23427;BME280;41148;45.420;10.952;2023-10-13T08:48:02;101348.97;;;22.19;72.88
23427;BME280;41148;45.420;10.952;2023-10-13T08:50:46;101354.00;;;22.25;73.35
23427;BME280;41148;45.420;10.952;2023-10-13T08:55:57;101354.81;;;21.98;73.49
23427;BME280;41148;45.420;10.952;2023-10-13T08:58:44;101354.41;;;22.05;73.97
23427;BME280;41148;45.420;10.952;2023-10-13T09:01:28;101351.78;;;22.17;73.62
23427;BME280;41148;45.420;10.952;2023-10-13T09:04:16;101353.44;;;22.20;73.59
23427;BME280;41148;45.420;10.952;2023-10-13T09:15:05;101367.28;;;22.30;71.67
23427;BME280;41148;45.420;10.952;2023-10-13T09:17:41;101365.84;;;22.24;71.95
23427;BME280;41148;45.420;10.952;2023-10-13T09:20:28;101370.94;;;22.28;72.24
23427;BME280;41148;45.420;10.952;2023-10-13T09:23:12;101364.09;;;22.23;71.54
23427;BME280;41148;45.420;10.952;2023-10-13T09:25:40;101359.31;;;22.26;71.52
23427;BME280;41148;45.420;10.952;2023-10-13T09:28:40;101367.84;;;22.35;71.75
23427;BME280;41148;45.420;10.952;2023-10-13T09:31:07;101363.53;;;22.45;70.63
23427;BME280;41148;45.420;10.952;2023-10-13T09:33:37;101361.19;;;22.53;69.96
23427;BME280;41148;45.420;10.952;2023-10-13T09:36:07;101360.97;;;22.56;69.48
23427;BME280;41148;45.420;10.952;2023-10-13T09:38:36;101363.25;;;22.49;70.51
23427;BME280;41148;45.420;10.952;2023-10-13T09:41:08;101348.75;;;22.76;70.10
23427;BME280;41148;45.420;10.952;2023-10-13T09:43:55;101360.47;;;22.76;69.45
23427;BME280;41148;45.420;10.952;2023-10-13T09:46:27;101351.22;;;22.66;69.66
23427;BME280;41148;45.420;10.952;2023-10-13T09:49:06;101340.66;;;22.89;68.95
23427;BME280;41148;45.420;10.952;2023-10-13T09:51:41;101343.69;;;22.84;69.77
23427;BME280;41148;45.420;10.952;2023-10-13T09:54:31;101338.59;;;23.05;68.46
23427;BME280;41148;45.420;10.952;2023-10-13T09:57:11;101342.41;;;22.90;69.45
23427;BME280;41148;45.420;10.952;2023-10-13T09:59:49;101334.59;;;22.98;69.10
23427;BME280;41148;45.420;10.952;2023-10-13T10:02:20;101343.06;;;23.06;69.42
23427;BME280;41148;45.420;10.952;2023-10-13T10:04:55;101341.66;;;23.00;69.28
23427;BME280;41148;45.420;10.952;2023-10-13T10:07:43;101331.34;;;23.31;68.38
23427;BME280;41148;45.420;10.952;2023-10-13T10:10:21;101332.19;;;23.44;68.08
23427;BME280;41148;45.420;10.952;2023-10-13T10:13:07;101339.06;;;23.50;68.10
23427;BME280;41148;45.420;10.952;2023-10-13T10:15:43;101335.16;;;23.28;68.87
23427;BME280;41148;45.420;10.952;2023-10-13T10:18:22;101325.88;;;23.43;68.31
23427;BME280;41148;45.420;10.952;2023-10-13T10:20:50;101315.25;;;23.40;66.31
23427;BME280;41148;45.420;10.952;2023-10-13T10:23:29;101323.84;;;23.47;66.52
23427;BME280;41148;45.420;10.952;2023-10-13T10:26:09;101332.09;;;23.71;65.15
23427;BME280;41148;45.420;10.952;2023-10-13T10:28:42;101326.97;;;23.79;64.95
23427;BME280;41148;45.420;10.952;2023-10-13T10:31:12;101326.97;;;23.54;65.18
23427;BME280;41148;45.420;10.952;2023-10-13T10:33:40;101322.09;;;23.59;65.00
23427;BME280;41148;45.420;10.952;2023-10-13T10:36:08;101330.00;;;23.87;63.84
23427;BME280;41148;45.420;10.952;2023-10-13T10:38:54;101319.13;;;23.87;64.04
23427;BME280;41148;45.420;10.952;2023-10-13T10:41:28;101312.63;;;24.01;63.36
23427;BME280;41148;45.420;10.952;2023-10-13T10:44:15;101319.72;;;24.04;62.67
23427;BME280;41148;45.420;10.952;2023-10-13T10:47:12;101314.22;;;23.80;61.77
23427;BME280;41148;45.420;10.952;2023-10-13T10:49:47;101305.88;;;23.70;61.97
23427;BME280;41148;45.420;10.952;2023-10-13T10:52:17;101312.09;;;23.59;62.72
23427;BME280;41148;45.420;10.952;2023-10-13T10:54:59;101299.13;;;23.50;62.41
23427;BME280;41148;45.420;10.952;2023-10-13T10:57:27;101298.81;;;23.55;61.78
23427;BME280;41148;45.420;10.952;2023-10-13T11:00:05;101301.88;;;23.37;63.35
23427;BME280;41148;45.420;10.952;2023-10-13T11:02:39;101294.69;;;23.36;63.27
23427;BME280;41148;45.420;10.952;2023-10-13T11:05:07;101284.44;;;23.53;62.48
23427;BME280;41148;45.420;10.952;2023-10-13T11:07:45;101289.91;;;23.65;62.43
23427;BME280;41148;45.420;10.952;2023-10-13T11:10:17;101274.22;;;23.43;63.09
23427;BME280;41148;45.420;10.952;2023-10-13T11:12:58;101276.28;;;23.53;63.09
23427;BME280;41148;45.420;10.952;2023-10-13T11:15:46;101266.25;;;23.53;62.62
23427;BME280;41148;45.420;10.952;2023-10-13T11:18:14;101269.66;;;23.57;62.59
23427;BME280;41148;45.420;10.952;2023-10-13T11:20:55;101259.63;;;23.57;62.79
23427;BME280;41148;45.420;10.952;2023-10-13T11:23:23;101270.75;;;23.67;62.60
23427;BME280;41148;45.420;10.952;2023-10-13T11:26:00;101264.09;;;23.58;63.22
23427;BME280;41148;45.420;10.952;2023-10-13T11:28:28;101255.19;;;23.56;63.41
23427;BME280;41148;45.420;10.952;2023-10-13T11:30:56;101260.84;;;23.66;62.20
23427;BME280;41148;45.420;10.952;2023-10-13T11:33:27;101258.00;;;23.67;61.66
23427;BME280;41148;45.420;10.952;2023-10-13T11:35:58;101254.50;;;23.78;61.84
23427;BME280;41148;45.420;10.952;2023-10-13T11:38:34;101257.50;;;23.86;60.84
23427;BME280;41148;45.420;10.952;2023-10-13T11:41:07;101247.13;;;23.91;60.04
23427;BME280;41148;45.420;10.952;2023-10-13T11:43:36;101247.00;;;23.93;59.76
23427;BME280;41148;45.420;10.952;2023-10-13T11:46:10;101243.22;;;23.95;58.99
23427;BME280;41148;45.420;10.952;2023-10-13T11:48:39;101236.13;;;23.93;58.46
23427;BME280;41148;45.420;10.952;2023-10-13T11:51:13;101236.13;;;23.93;57.43
23427;BME280;41148;45.420;10.952;2023-10-13T11:53:59;101241.38;;;23.96;55.84
23427;BME280;41148;45.420;10.952;2023-10-13T11:56:26;101226.41;;;24.02;55.22
23427;BME280;41148;45.420;10.952;2023-10-13T11:58:54;101233.38;;;24.06;55.18
23427;BME280;41148;45.420;10.952;2023-10-13T12:01:21;101219.41;;;24.10;54.87
23427;BME280;41148;45.420;10.952;2023-10-13T12:04:08;101219.19;;;24.13;54.32
23427;BME280;41148;45.420;10.952;2023-10-13T12:06:55;101214.50;;;24.15;54.95
23427;BME280;41148;45.420;10.952;2023-10-13T12:09:41;101206.81;;;24.20;55.21
23427;BME280;41148;45.420;10.952;2023-10-13T12:12:19;101212.91;;;24.24;55.59
23427;BME280;41148;45.420;10.952;2023-10-13T12:14:47;101207.69;;;24.21;54.83
23427;BME280;41148;45.420;10.952;2023-10-13T12:19:58;101201.63;;;24.17;55.74
23427;BME280;41148;45.420;10.952;2023-10-13T12:22:26;101196.25;;;24.05;55.93
23427;BME280;41148;45.420;10.952;2023-10-13T12:25:03;101199.84;;;24.05;55.42
23427;BME280;41148;45.420;10.952;2023-10-13T12:27:48;101195.03;;;24.09;54.99
23427;BME280;41148;45.420;10.952;2023-10-13T12:30:17;101186.00;;;24.08;54.50
23427;BME280;41148;45.420;10.952;2023-10-13T12:33:02;101183.81;;;24.13;54.50
23427;BME280;41148;45.420;10.952;2023-10-13T12:35:39;101181.28;;;24.10;54.23
23427;BME280;41148;45.420;10.952;2023-10-13T12:38:27;101175.84;;;24.10;54.16
23427;BME280;41148;45.420;10.952;2023-10-13T12:41:05;101178.44;;;24.12;53.67
23427;BME280;41148;45.420;10.952;2023-10-13T12:44:03;101177.97;;;24.18;53.69
23427;BME280;41148;45.420;10.952;2023-10-13T12:46:50;101173.06;;;24.23;53.78
23427;BME280;41148;45.420;10.952;2023-10-13T12:49:37;101173.81;;;24.25;53.35
23427;BME280;41148;45.420;10.952;2023-10-13T12:52:25;101158.09;;;24.28;52.53
23427;BME280;41148;45.420;10.952;2023-10-13T12:54:53;101161.50;;;24.43;50.73
23427;BME280;41148;45.420;10.952;2023-10-13T12:57:28;101147.66;;;24.46;50.99
23427;BME280;41148;45.420;10.952;2023-10-13T12:59:55;101161.16;;;24.59;50.45
23427;BME280;41148;45.420;10.952;2023-10-13T13:02:24;101152.25;;;24.57;50.29
23427;BME280;41148;45.420;10.952;2023-10-13T13:04:55;101165.38;;;24.63;48.68
23427;BME280;41148;45.420;10.952;2023-10-13T13:07:33;101152.84;;;24.61;48.86
23427;BME280;41148;45.420;10.952;2023-10-13T13:10:11;101152.84;;;24.61;49.92
23427;BME280;41148;45.420;10.952;2023-10-13T13:12:42;101146.78;;;24.57;50.11
23427;BME280;41148;45.420;10.952;2023-10-13T13:15:10;101139.63;;;24.56;49.65
23427;BME280;41148;45.420;10.952;2023-10-13T13:17:39;101146.31;;;24.63;50.17
23427;BME280;41148;45.420;10.952;2023-10-13T13:20:08;101144.69;;;24.61;50.41
23427;BME280;41148;45.420;10.952;2023-10-13T13:22:39;101139.88;;;24.53;50.61
23427;BME280;41148;45.420;10.952;2023-10-13T13:25:07;101135.41;;;24.52;50.16
23427;BME280;41148;45.420;10.952;2023-10-13T13:27:36;101140.72;;;24.53;49.71
23427;BME280;41148;45.420;10.952;2023-10-13T13:30:04;101141.09;;;24.49;50.09
23427;BME280;41148;45.420;10.952;2023-10-13T13:32:41;101133.28;;;24.44;50.49
23427;BME280;41148;45.420;10.952;2023-10-13T13:35:08;101124.00;;;24.58;50.49
23427;BME280;41148;45.420;10.952;2023-10-13T13:37:41;101123.25;;;24.45;50.24
23427;BME280;41148;45.420;10.952;2023-10-13T13:40:12;101125.84;;;24.46;50.83